Meteo Giornale » Osservazioni meteo Stati Uniti (USA) » Mercury Desert Rock
ore: 00:53 - Osservazioni Meteo Mercury Desert Rock
Lat. 36° 37' N Lon. 116° 1' W Alt. 1007 metri s.l.m.
26 °C
Sereno
Temp. 24 Ore
0 °C
34 °C
Nord
0 Km/h
Dew point -4 °C
Umidità 13 %
Visibilità 10 Km
Il sole sorge alle ore 06:15
Il sole tramonta alle ore 19:12
| Data e Ora | Cielo e Fenomeni | T °C | DP °C | Um. % | Pres. hPa | Vis. km | Vento km/h | |
|---|---|---|---|---|---|---|---|---|
| Oggi h: 00:53 | Sereno | 26 | -4 | 13 | 1013 | 10 | N 0 | |
| Ieri h: 23:53 | Sereno | 24 | -4 | 15 | 1013 | 10 | N 0 | |
| Ieri h: 22:53 | Sereno | 25 | -4 | 14 | 1013 | 10 | S 7.4 | |
| Ieri h: 21:53 | Sereno | 27 | -4 | 12 | 1013 | 10 | S/SO 11.1 | |
| Ieri h: 20:53 | Sereno | 28 | -2 | 13 | 1012 | 10 | S 20.3 | |
| Ieri h: 19:53 | Sereno | 30 | 4 | 19 | 1011 | 10 | S/SE 25.9 | |
| Ieri h: 18:53 | Sereno | 31 | 3 | 16 | 1011 | 10 | S 29.6 | |
| Ieri h: 17:53 | Poco Nuvoloso | 33 | 3 | 15 | 1011 | 10 | S/SE 31.5 | |
| Ieri h: 16:53 | Sereno | 33 | 3 | 15 | 1011 | 10 | S 31.5 | |
| Ieri h: 15:53 | Sereno | 34 | 2 | 13 | 1012 | 10 | S/SE 33.3 | |
| Ieri h: 14:53 | Sereno | 34 | 3 | 14 | 1012 | 10 | S 31.5 | |
| Ieri h: 13:53 | Sereno | 34 | 3 | 14 | 1013 | 10 | S/SE 37 | |
| Ieri h: 12:53 | Sereno | 0 | 0 | 46 | 1014 | 0 | N 0 | |
| Ieri h: 11:53 | Sereno | 33 | 6 | 18 | 1014 | 0 | N 0 | |
| Ieri h: 10:53 | Nuvoloso | 31 | 6 | 20 | 1014 | 10 | S 29.6 | |
| Ieri h: 09:53 | Sereno | 31 | 5 | 19 | 1014 | 10 | S/SO 20.3 | |
| Ieri h: 09:44 | Sereno | 31 | 5 | 19 | 1014 | 10 | SO 27.8 | |
| Ieri h: 08:53 | Sereno | 28 | 4 | 21 | 1014 | 10 | S/SE 22.2 | |
| Ieri h: 07:53 | Sereno | 24 | 4 | 27 | 1014 | 10 | N 0 | |
| Ieri h: 06:53 | Sereno | 23 | 3 | 26 | 1014 | 10 | N/NE 9.3 | |
| Ieri h: 05:53 | Sereno | 22 | 4 | 30 | 1013 | 10 | N 16.7 | |
| Ieri h: 04:53 | Sereno | 23 | 4 | 28 | 1013 | 10 | N 14.8 | |
| Ieri h: 03:53 | Sereno | 23 | 3 | 26 | 1013 | 10 | N 7.4 | |
| Ieri h: 02:53 | Sereno | 24 | 3 | 25 | 1012 | 10 | N 14.8 | |
| Ieri h: 01:53 | Sereno | 23 | 2 | 25 | 1012 | 10 | O/NO 11.1 | |



